createdAt,value
2022-11-15T00:00:48.645Z,0.00
2022-11-15T00:01:48.614Z,0.00
2022-11-15T00:02:48.584Z,0.00
2022-11-15T00:03:48.579Z,0.00
2022-11-15T00:04:48.554Z,0.00
2022-11-15T00:05:48.547Z,0.00
2022-11-15T00:06:48.564Z,0.00
2022-11-15T00:07:55.794Z,0.00
2022-11-15T00:08:49.529Z,0.00
2022-11-15T00:09:48.503Z,0.00
2022-11-15T00:10:48.488Z,0.00
2022-11-15T00:11:48.507Z,0.00
2022-11-15T00:12:48.465Z,0.00
2022-11-15T00:13:48.450Z,0.00
2022-11-15T00:14:48.455Z,0.00
2022-11-15T00:15:48.439Z,0.00
2022-11-15T00:16:48.431Z,0.00
2022-11-15T00:17:48.426Z,0.00
2022-11-15T00:18:50.908Z,0.00
2022-11-15T00:19:48.392Z,0.00
2022-11-15T00:20:48.386Z,0.00
2022-11-15T00:21:48.356Z,0.00
2022-11-15T00:22:48.343Z,0.00
2022-11-15T00:23:48.334Z,0.00
2022-11-15T00:24:48.319Z,0.00
2022-11-15T00:25:48.317Z,0.00
2022-11-15T00:26:48.319Z,0.00
2022-11-15T00:27:48.285Z,0.00
2022-11-15T00:28:48.283Z,0.00
2022-11-15T00:29:48.260Z,0.00
2022-11-15T00:30:48.251Z,0.00
2022-11-15T00:31:48.263Z,0.00
2022-11-15T00:32:48.228Z,0.00
2022-11-15T00:33:48.213Z,0.00
2022-11-15T00:34:48.207Z,0.00
2022-11-15T00:35:48.189Z,0.00
2022-11-15T00:36:48.186Z,0.00
2022-11-15T00:37:48.187Z,0.00
2022-11-15T00:38:48.158Z,0.00
2022-11-15T00:39:48.149Z,0.00
2022-11-15T00:40:48.145Z,0.00
2022-11-15T00:41:48.124Z,0.00
2022-11-15T00:42:48.119Z,0.00
2022-11-15T00:43:48.110Z,0.00
2022-11-15T00:44:48.092Z,0.00
2022-11-15T00:45:48.073Z,0.00
2022-11-15T00:46:48.062Z,0.00
2022-11-15T00:47:48.056Z,0.00
2022-11-15T00:48:48.058Z,0.00
2022-11-15T00:49:48.027Z,0.00
2022-11-15T00:50:48.021Z,0.00
2022-11-15T00:51:48.012Z,0.00
2022-11-15T00:52:47.998Z,0.00
2022-11-15T00:53:47.988Z,0.00
2022-11-15T00:54:47.997Z,0.00
2022-11-15T00:55:47.959Z,0.00
2022-11-15T00:56:47.958Z,0.00
2022-11-15T00:57:47.943Z,0.00
2022-11-15T00:58:47.929Z,0.00
2022-11-15T00:59:47.915Z,0.00
2022-11-15T01:00:47.975Z,0.00
2022-11-15T01:01:47.900Z,0.00
2022-11-15T01:02:47.879Z,0.00
2022-11-15T01:03:47.884Z,0.00
2022-11-15T01:04:47.873Z,0.00
2022-11-15T01:05:47.864Z,0.00
2022-11-15T01:06:47.925Z,0.00
2022-11-15T01:07:47.845Z,0.00
2022-11-15T01:08:47.850Z,0.00
2022-11-15T01:09:47.803Z,0.00
2022-11-15T01:10:47.806Z,0.00
2022-11-15T01:11:47.784Z,0.00
2022-11-15T01:12:47.815Z,0.00
2022-11-15T01:13:47.778Z,0.00
2022-11-15T01:14:47.753Z,0.00
2022-11-15T01:15:47.735Z,0.00
2022-11-15T01:16:47.736Z,0.00
2022-11-15T01:17:47.744Z,0.00
2022-11-15T01:18:47.721Z,0.00
2022-11-15T01:19:47.680Z,0.00
2022-11-15T01:20:47.682Z,0.00
2022-11-15T01:21:47.672Z,0.00
2022-11-15T01:22:47.680Z,0.00
2022-11-15T01:23:47.639Z,0.00
2022-11-15T01:24:47.631Z,0.00
2022-11-15T01:25:47.612Z,0.00
2022-11-15T01:26:47.611Z,0.00
2022-11-15T01:27:47.591Z,0.00
2022-11-15T01:28:47.596Z,0.00
2022-11-15T01:29:47.559Z,0.00
2022-11-15T01:30:47.567Z,0.00
2022-11-15T01:31:47.544Z,0.00
2022-11-15T01:32:47.533Z,0.00
2022-11-15T01:33:47.545Z,0.00
2022-11-15T01:34:47.513Z,0.00
2022-11-15T01:35:47.497Z,0.00
2022-11-15T01:36:47.490Z,0.00
2022-11-15T01:37:47.479Z,0.00
2022-11-15T01:38:47.480Z,0.00
2022-11-15T01:39:47.462Z,0.00
2022-11-15T01:40:47.446Z,0.00
2022-11-15T01:41:47.435Z,0.00
2022-11-15T01:42:47.434Z,0.00
2022-11-15T01:43:47.412Z,0.00
2022-11-15T01:44:47.405Z,0.00
2022-11-15T01:45:47.382Z,0.00
2022-11-15T01:46:47.369Z,0.00
2022-11-15T01:47:47.351Z,0.00
2022-11-15T01:48:47.350Z,0.00
2022-11-15T01:49:47.358Z,0.00
2022-11-15T01:50:47.334Z,0.00
2022-11-15T01:51:47.312Z,0.00
2022-11-15T01:52:47.308Z,0.00
2022-11-15T01:53:47.291Z,0.00
2022-11-15T01:54:47.303Z,0.00
2022-11-15T01:55:47.278Z,0.00
2022-11-15T01:56:47.262Z,0.00
2022-11-15T01:57:47.234Z,0.00
2022-11-15T01:58:47.235Z,0.00
2022-11-15T01:59:47.225Z,0.00
2022-11-15T02:00:47.267Z,0.00
2022-11-15T02:01:47.193Z,0.00
2022-11-15T02:02:47.183Z,0.00
2022-11-15T02:03:47.176Z,0.00
2022-11-15T02:04:47.178Z,0.00
2022-11-15T02:05:47.149Z,0.00
2022-11-15T02:06:47.183Z,0.00
2022-11-15T02:07:47.126Z,0.00
2022-11-15T02:08:47.119Z,0.00
2022-11-15T02:09:47.102Z,0.00
2022-11-15T02:10:47.096Z,0.00
2022-11-15T02:11:47.095Z,0.00
2022-11-15T02:12:47.067Z,0.00
2022-11-15T02:13:47.054Z,0.00
2022-11-15T02:14:47.045Z,0.00
2022-11-15T02:15:47.035Z,0.00
2022-11-15T02:16:47.047Z,0.00
2022-11-15T02:17:47.011Z,0.00
2022-11-15T02:18:47.006Z,0.00
2022-11-15T02:19:46.988Z,0.00
2022-11-15T02:20:46.983Z,0.00
2022-11-15T02:21:46.966Z,0.00
2022-11-15T02:22:46.977Z,0.00
2022-11-15T02:23:46.944Z,0.00
2022-11-15T02:24:46.946Z,0.00
2022-11-15T02:25:46.921Z,0.00
2022-11-15T02:26:46.928Z,0.00
2022-11-15T02:27:46.902Z,0.00
2022-11-15T02:28:46.916Z,0.00
2022-11-15T02:29:46.877Z,0.00
2022-11-15T02:30:46.859Z,0.00
2022-11-15T02:31:46.854Z,0.00
2022-11-15T02:32:46.840Z,0.00
2022-11-15T02:33:46.829Z,0.00
2022-11-15T02:34:46.827Z,0.00
2022-11-15T02:35:46.802Z,0.00
2022-11-15T02:36:46.795Z,0.00
2022-11-15T02:37:46.781Z,0.00
2022-11-15T02:38:46.766Z,0.00
2022-11-15T02:39:46.742Z,0.00
2022-11-15T02:40:46.776Z,0.00
2022-11-15T02:41:46.739Z,0.00
2022-11-15T02:42:46.720Z,0.00
2022-11-15T02:43:46.708Z,0.00
2022-11-15T02:44:46.708Z,0.00
2022-11-15T02:45:46.701Z,0.00
2022-11-15T02:46:46.679Z,0.00
2022-11-15T02:47:46.666Z,0.00
2022-11-15T02:48:46.654Z,0.00
2022-11-15T02:49:46.636Z,0.00
2022-11-15T02:50:46.636Z,0.00
2022-11-15T02:51:46.626Z,0.00
2022-11-15T02:52:46.607Z,0.00
2022-11-15T02:53:46.586Z,0.00
2022-11-15T02:54:46.582Z,0.00
2022-11-15T02:55:46.568Z,0.00
2022-11-15T02:56:46.588Z,0.00
2022-11-15T02:57:46.538Z,0.00
2022-11-15T02:58:46.541Z,0.00
2022-11-15T02:59:46.518Z,0.00
2022-11-15T03:00:46.569Z,0.00
2022-11-15T03:01:46.502Z,0.00
2022-11-15T03:02:46.507Z,0.00
2022-11-15T03:03:46.469Z,0.00
2022-11-15T03:04:46.462Z,0.00
2022-11-15T03:05:46.456Z,0.00
2022-11-15T03:06:46.481Z,0.00
2022-11-15T03:07:46.443Z,0.00
2022-11-15T03:08:46.421Z,0.00
2022-11-15T03:09:46.408Z,0.00
2022-11-15T03:10:46.398Z,0.00
2022-11-15T03:11:46.383Z,0.00
2022-11-15T03:12:46.369Z,0.00
2022-11-15T03:13:46.376Z,0.00
2022-11-15T03:14:46.349Z,0.00
2022-11-15T03:15:46.337Z,0.00
2022-11-15T03:16:46.326Z,0.00
2022-11-15T03:17:46.309Z,0.00
2022-11-15T03:18:46.305Z,0.00
2022-11-15T03:19:46.301Z,0.00
2022-11-15T03:20:46.283Z,0.00
2022-11-15T03:21:46.259Z,0.00
2022-11-15T03:22:46.247Z,0.00
2022-11-15T03:23:46.241Z,0.00
2022-11-15T03:24:46.244Z,0.00
2022-11-15T03:25:46.224Z,0.00
2022-11-15T03:26:46.210Z,0.00
2022-11-15T03:27:46.194Z,0.00
2022-11-15T03:28:46.193Z,0.00
2022-11-15T03:29:46.182Z,0.00
2022-11-15T03:30:46.152Z,0.00
2022-11-15T03:31:50.013Z,0.00
2022-11-15T03:32:47.145Z,0.00
2022-11-15T03:33:46.121Z,0.00
2022-11-15T03:34:46.138Z,0.00
2022-11-15T03:35:46.097Z,0.00
2022-11-15T03:36:46.095Z,0.00
2022-11-15T03:37:46.111Z,0.00
2022-11-15T03:38:46.063Z,0.00
2022-11-15T03:39:46.050Z,0.00
2022-11-15T03:40:46.062Z,0.00
2022-11-15T03:41:46.030Z,0.00
2022-11-15T03:42:46.020Z,0.00
2022-11-15T03:43:45.998Z,0.00
2022-11-15T03:44:46.003Z,0.00
2022-11-15T03:45:45.989Z,0.00
2022-11-15T03:46:45.970Z,0.00
2022-11-15T03:47:45.959Z,0.00
2022-11-15T03:48:45.952Z,0.00
2022-11-15T03:49:45.931Z,0.00
2022-11-15T03:50:45.949Z,0.00
2022-11-15T03:51:45.913Z,0.00
2022-11-15T03:52:45.920Z,0.00
2022-11-15T03:53:45.889Z,0.00
2022-11-15T03:54:45.871Z,0.00
2022-11-15T03:55:45.879Z,0.00
2022-11-15T03:56:45.854Z,0.00
2022-11-15T03:57:45.848Z,0.00
2022-11-15T03:58:45.835Z,0.00
2022-11-15T03:59:45.817Z,0.00
2022-11-15T04:00:45.890Z,0.00
2022-11-15T04:01:45.794Z,0.00
2022-11-15T04:02:45.785Z,0.00
2022-11-15T04:03:45.771Z,0.00
2022-11-15T04:04:45.759Z,0.00
2022-11-15T04:05:45.774Z,0.00
2022-11-15T04:06:45.790Z,0.00
2022-11-15T04:07:45.723Z,0.00
2022-11-15T04:08:45.714Z,0.00
2022-11-15T04:09:45.698Z,0.00
2022-11-15T04:10:45.693Z,0.00
2022-11-15T04:11:45.687Z,0.00
2022-11-15T04:12:45.669Z,0.00
2022-11-15T04:13:45.659Z,0.00
2022-11-15T04:14:45.645Z,0.00
2022-11-15T04:15:45.620Z,0.00
2022-11-15T04:16:45.615Z,0.00
2022-11-15T04:17:45.621Z,0.00
2022-11-15T04:18:45.582Z,0.00
2022-11-15T04:19:45.577Z,0.00
2022-11-15T04:20:45.584Z,0.00
2022-11-15T04:21:45.552Z,0.00
2022-11-15T04:22:45.547Z,0.00
2022-11-15T04:23:45.547Z,0.00
2022-11-15T04:24:45.514Z,0.00
2022-11-15T04:25:45.507Z,0.00
2022-11-15T04:26:45.507Z,0.00
2022-11-15T04:27:45.487Z,0.00
2022-11-15T04:28:45.496Z,0.00
2022-11-15T04:29:45.472Z,0.00
2022-11-15T04:30:45.454Z,0.00
2022-11-15T04:31:45.444Z,0.00
2022-11-15T04:32:45.436Z,0.00
2022-11-15T04:33:45.417Z,0.00
2022-11-15T04:34:45.433Z,0.00
2022-11-15T04:35:45.393Z,0.00
2022-11-15T04:36:45.387Z,0.00
2022-11-15T04:37:49.319Z,0.00
2022-11-15T04:38:45.356Z,0.00
2022-11-15T04:39:45.355Z,0.00
2022-11-15T04:40:45.343Z,0.00
2022-11-15T04:41:45.317Z,0.00
2022-11-15T04:42:45.310Z,0.00
2022-11-15T04:43:45.299Z,0.00
2022-11-15T04:44:45.308Z,0.00
2022-11-15T04:45:45.271Z,0.00
2022-11-15T04:46:45.268Z,0.00
2022-11-15T04:47:45.248Z,0.00
2022-11-15T04:48:45.239Z,0.00
2022-11-15T04:49:45.243Z,0.00
2022-11-15T04:50:45.218Z,0.00
2022-11-15T04:51:45.208Z,0.00
2022-11-15T04:52:45.199Z,0.00
2022-11-15T04:53:45.180Z,0.00
2022-11-15T04:54:45.180Z,0.00
2022-11-15T04:55:45.163Z,0.00
2022-11-15T04:56:45.151Z,0.00
2022-11-15T04:57:45.139Z,0.00
2022-11-15T04:58:45.119Z,0.00
2022-11-15T04:59:45.119Z,0.00
2022-11-15T05:00:45.123Z,0.00
2022-11-15T05:01:45.454Z,0.00
2022-11-15T05:02:45.067Z,0.00
2022-11-15T05:03:45.073Z,0.00
2022-11-15T05:04:45.054Z,0.00
2022-11-15T05:05:45.060Z,0.00
2022-11-15T05:06:45.098Z,0.00
2022-11-15T05:07:45.024Z,0.00
2022-11-15T05:08:45.022Z,0.00
2022-11-15T05:09:44.996Z,0.00
2022-11-15T05:10:44.978Z,0.00
2022-11-15T05:11:44.994Z,0.00
2022-11-15T05:12:44.958Z,0.00
2022-11-15T05:13:44.950Z,0.00
2022-11-15T05:14:44.939Z,0.00
2022-11-15T05:15:44.937Z,0.00
2022-11-15T05:16:44.906Z,0.00
2022-11-15T05:17:44.905Z,0.00
2022-11-15T05:18:44.891Z,0.00
2022-11-15T05:19:44.883Z,0.00
2022-11-15T05:20:44.865Z,0.00
2022-11-15T05:21:44.891Z,0.00
2022-11-15T05:22:44.842Z,0.00
2022-11-15T05:23:44.830Z,0.00
2022-11-15T05:24:44.814Z,0.00
2022-11-15T05:25:44.804Z,0.00
2022-11-15T05:26:44.802Z,0.00
2022-11-15T05:27:44.781Z,0.00
2022-11-15T05:28:44.772Z,0.00
2022-11-15T05:29:44.758Z,0.00
2022-11-15T05:30:44.760Z,0.00
2022-11-15T05:31:44.757Z,0.00
2022-11-15T05:32:44.720Z,0.00
2022-11-15T05:33:44.707Z,0.00
2022-11-15T05:34:44.689Z,0.00
2022-11-15T05:35:44.680Z,0.00
2022-11-15T05:36:44.677Z,0.00
2022-11-15T05:37:44.672Z,0.00
2022-11-15T05:38:44.640Z,0.00
2022-11-15T05:39:44.634Z,0.00
2022-11-15T05:40:44.623Z,0.00
2022-11-15T05:41:44.623Z,0.00
2022-11-15T05:42:44.616Z,0.00
2022-11-15T05:43:44.595Z,0.00
2022-11-15T05:44:44.576Z,0.00
2022-11-15T05:45:44.574Z,0.00
2022-11-15T05:46:44.557Z,0.00
2022-11-15T05:47:44.565Z,0.00
2022-11-15T05:48:44.530Z,0.00
2022-11-15T05:49:44.522Z,0.00
2022-11-15T05:50:44.502Z,0.00
2022-11-15T05:51:44.493Z,0.00
2022-11-15T05:52:44.512Z,0.00
2022-11-15T05:53:44.482Z,0.00
2022-11-15T05:54:44.454Z,0.00
2022-11-15T05:55:44.454Z,0.00
2022-11-15T05:56:44.436Z,0.00
2022-11-15T05:57:44.465Z,0.00
2022-11-15T05:58:44.414Z,0.00
2022-11-15T05:59:44.427Z,0.00
2022-11-15T06:00:44.394Z,0.00
2022-11-15T06:01:44.454Z,0.00
2022-11-15T06:02:44.379Z,0.00
2022-11-15T06:03:44.360Z,0.00
2022-11-15T06:04:44.338Z,0.00
2022-11-15T06:05:44.335Z,0.00
2022-11-15T06:06:44.327Z,0.00
2022-11-15T06:07:44.317Z,0.00
2022-11-15T06:08:44.315Z,0.00
2022-11-15T06:09:44.281Z,0.00
2022-11-15T06:10:44.265Z,0.00
2022-11-15T06:11:44.266Z,0.00
2022-11-15T06:12:44.245Z,0.00
2022-11-15T06:13:44.255Z,0.00
2022-11-15T06:14:44.228Z,0.00
2022-11-15T06:15:44.242Z,0.00
2022-11-15T06:16:44.209Z,0.00
2022-11-15T06:17:44.203Z,4.00
2022-11-15T06:18:44.180Z,0.00
2022-11-15T06:19:44.179Z,0.00
2022-11-15T06:20:44.144Z,0.00
2022-11-15T06:21:44.145Z,4.00
2022-11-15T06:22:44.127Z,0.00
2022-11-15T06:23:44.119Z,4.00
2022-11-15T06:24:44.125Z,4.00
2022-11-15T06:25:44.097Z,0.00
2022-11-15T06:26:44.081Z,0.00
2022-11-15T06:27:44.077Z,4.00
2022-11-15T06:28:44.064Z,4.00
2022-11-15T06:29:44.047Z,4.00
2022-11-15T06:30:46.076Z,4.00
2022-11-15T06:31:44.029Z,4.00
2022-11-15T06:32:44.009Z,4.00
2022-11-15T06:33:44.013Z,8.00
2022-11-15T06:34:44.000Z,8.00
2022-11-15T06:35:44.007Z,8.00
2022-11-15T06:36:43.967Z,8.00
2022-11-15T06:37:43.958Z,8.00
2022-11-15T06:38:43.940Z,8.00
2022-11-15T06:39:43.933Z,8.00
2022-11-15T06:40:43.946Z,12.00
2022-11-15T06:41:43.907Z,12.00
2022-11-15T06:42:43.906Z,12.00
2022-11-15T06:43:43.882Z,12.00
2022-11-15T06:44:43.876Z,12.00
2022-11-15T06:45:43.866Z,16.00
2022-11-15T06:46:43.854Z,20.00
2022-11-15T06:47:43.843Z,24.00
2022-11-15T06:48:43.829Z,32.00
2022-11-15T06:49:43.815Z,32.00
2022-11-15T06:50:43.815Z,32.00
2022-11-15T06:51:43.798Z,40.00
2022-11-15T06:52:43.782Z,44.00
2022-11-15T06:53:43.759Z,48.00
2022-11-15T06:54:43.758Z,56.00
2022-11-15T06:55:43.775Z,60.00
2022-11-15T06:56:43.739Z,64.00
2022-11-15T06:57:43.721Z,68.00
2022-11-15T06:58:43.709Z,68.00
2022-11-15T06:59:43.697Z,72.00
2022-11-15T07:00:43.680Z,80.00
2022-11-15T07:01:43.750Z,80.00
2022-11-15T07:02:43.662Z,84.00
2022-11-15T07:03:43.661Z,88.00
2022-11-15T07:04:43.636Z,92.00
2022-11-15T07:05:43.638Z,100.00
2022-11-15T07:06:43.609Z,104.00
2022-11-15T07:07:43.609Z,108.00
2022-11-15T07:08:43.605Z,120.00
2022-11-15T07:09:43.584Z,116.00
2022-11-15T07:10:43.590Z,120.00
2022-11-15T07:11:43.552Z,132.00
2022-11-15T07:12:43.548Z,136.00
2022-11-15T07:13:43.536Z,148.00
2022-11-15T07:14:43.523Z,156.00
2022-11-15T07:15:43.508Z,156.00
2022-11-15T07:16:43.511Z,164.00
2022-11-15T07:17:43.493Z,176.00
2022-11-15T07:18:43.471Z,184.00
2022-11-15T07:19:43.465Z,192.00
2022-11-15T07:20:43.479Z,204.00
2022-11-15T07:21:43.438Z,212.00
2022-11-15T07:22:43.430Z,224.00
2022-11-15T07:23:43.416Z,232.00
2022-11-15T07:24:43.402Z,240.00
2022-11-15T07:25:43.422Z,252.00
2022-11-15T07:26:43.374Z,268.00
2022-11-15T07:27:43.381Z,276.00
2022-11-15T07:28:43.350Z,276.00
2022-11-15T07:29:43.339Z,268.00
2022-11-15T07:30:45.373Z,260.00
2022-11-15T07:31:43.341Z,264.00
2022-11-15T07:32:43.314Z,272.00
2022-11-15T07:33:43.294Z,284.00
2022-11-15T07:34:43.292Z,296.00
2022-11-15T07:35:43.284Z,316.00
2022-11-15T07:36:43.264Z,324.00
2022-11-15T07:37:43.245Z,332.00
2022-11-15T07:38:43.326Z,336.00
2022-11-15T07:39:43.226Z,348.00
2022-11-15T07:40:43.233Z,356.00
2022-11-15T07:41:43.215Z,368.00
2022-11-15T07:42:43.192Z,384.00
2022-11-15T07:43:43.184Z,400.00
2022-11-15T07:44:43.174Z,424.00
2022-11-15T07:45:43.160Z,448.00
2022-11-15T07:46:43.166Z,460.00
2022-11-15T07:47:43.145Z,452.00
2022-11-15T07:48:44.801Z,460.00
2022-11-15T07:49:43.106Z,480.00
2022-11-15T07:50:43.150Z,488.00
2022-11-15T07:51:43.082Z,512.00
2022-11-15T07:52:43.080Z,540.00
2022-11-15T07:53:43.054Z,616.00
2022-11-15T07:54:43.054Z,932.00
2022-11-15T07:55:43.052Z,836.00
2022-11-15T07:56:43.026Z,736.00
2022-11-15T07:57:43.017Z,688.00
2022-11-15T07:58:43.016Z,1672.00
2022-11-15T07:59:42.996Z,1020.00
2022-11-15T08:00:42.977Z,740.00
2022-11-15T08:01:43.109Z,620.00
2022-11-15T08:02:43.122Z,584.00
2022-11-15T08:03:42.947Z,576.00
2022-11-15T08:04:42.938Z,588.00
2022-11-15T08:05:42.941Z,604.00
2022-11-15T08:06:42.911Z,632.00
2022-11-15T08:07:42.903Z,656.00
2022-11-15T08:08:42.887Z,700.00
2022-11-15T08:09:42.878Z,712.00
2022-11-15T08:10:42.890Z,712.00
2022-11-15T08:11:42.869Z,704.00
2022-11-15T08:12:42.872Z,700.00
2022-11-15T08:13:42.835Z,700.00
2022-11-15T08:14:42.814Z,712.00
2022-11-15T08:15:42.805Z,716.00
2022-11-15T08:16:42.809Z,704.00
2022-11-15T08:17:42.778Z,696.00
2022-11-15T08:18:42.772Z,728.00
2022-11-15T08:19:42.758Z,848.00
2022-11-15T08:20:42.770Z,768.00
2022-11-15T08:21:42.740Z,820.00
2022-11-15T08:22:42.727Z,820.00
2022-11-15T08:23:42.711Z,884.00
2022-11-15T08:24:42.711Z,804.00
2022-11-15T08:25:42.709Z,820.00
2022-11-15T08:26:42.683Z,836.00
2022-11-15T08:27:42.662Z,816.00
2022-11-15T08:28:42.661Z,824.00
2022-11-15T08:29:42.639Z,804.00
2022-11-15T08:30:42.674Z,776.00
2022-11-15T08:31:42.640Z,788.00
2022-11-15T08:32:42.611Z,800.00
2022-11-15T08:33:42.601Z,884.00
2022-11-15T08:34:42.589Z,828.00
2022-11-15T08:35:42.591Z,912.00
2022-11-15T08:36:45.946Z,960.00
2022-11-15T08:37:42.552Z,952.00
2022-11-15T08:38:42.539Z,928.00
2022-11-15T08:39:42.520Z,924.00
2022-11-15T08:40:42.540Z,964.00
2022-11-15T08:41:42.506Z,992.00
2022-11-15T08:42:42.501Z,976.00
2022-11-15T08:43:42.482Z,980.00
2022-11-15T08:44:42.469Z,988.00
2022-11-15T08:45:42.452Z,984.00
2022-11-15T08:46:42.474Z,1020.00
2022-11-15T08:47:42.445Z,1000.00
2022-11-15T08:48:42.422Z,976.00
2022-11-15T08:49:42.422Z,940.00
2022-11-15T08:50:42.413Z,896.00
2022-11-15T08:51:42.383Z,892.00
2022-11-15T08:52:42.372Z,872.00
2022-11-15T08:53:42.363Z,872.00
2022-11-15T08:54:42.362Z,860.00
2022-11-15T08:55:42.354Z,856.00
2022-11-15T08:56:42.343Z,892.00
2022-11-15T08:57:42.316Z,904.00
2022-11-15T08:58:42.310Z,856.00
2022-11-15T08:59:42.293Z,872.00
2022-11-15T09:00:42.285Z,884.00
2022-11-15T09:01:42.347Z,904.00
2022-11-15T09:02:42.263Z,932.00
2022-11-15T09:03:42.260Z,912.00
2022-11-15T09:04:42.231Z,908.00
2022-11-15T09:05:42.241Z,920.00
2022-11-15T09:06:43.302Z,904.00
2022-11-15T09:07:42.204Z,928.00
2022-11-15T09:08:49.287Z,956.00
2022-11-15T09:09:43.185Z,980.00
2022-11-15T09:10:42.178Z,960.00
2022-11-15T09:11:42.154Z,952.00
2022-11-15T09:12:42.148Z,940.00
2022-11-15T09:13:42.134Z,924.00
2022-11-15T09:14:42.114Z,956.00
2022-11-15T09:15:42.126Z,964.00
2022-11-15T09:16:42.121Z,968.00
2022-11-15T09:17:42.093Z,964.00
2022-11-15T09:18:42.096Z,960.00
2022-11-15T09:19:42.065Z,952.00
2022-11-15T09:20:42.076Z,952.00
2022-11-15T09:21:42.038Z,944.00
2022-11-15T09:22:42.027Z,940.00
2022-11-15T09:23:42.012Z,928.00
2022-11-15T09:24:42.001Z,920.00
2022-11-15T09:25:42.012Z,936.00
2022-11-15T09:26:41.985Z,888.00
2022-11-15T09:27:41.965Z,944.00
2022-11-15T09:28:41.955Z,936.00
2022-11-15T09:29:41.948Z,932.00
2022-11-15T09:30:41.946Z,924.00
2022-11-15T09:31:41.918Z,948.00
2022-11-15T09:32:41.902Z,928.00
2022-11-15T09:33:41.900Z,952.00
2022-11-15T09:34:41.888Z,968.00
2022-11-15T09:35:41.927Z,920.00
2022-11-15T09:36:41.853Z,880.00
2022-11-15T09:37:41.856Z,932.00
2022-11-15T09:38:41.828Z,948.00
2022-11-15T09:39:41.827Z,932.00
2022-11-15T09:40:41.826Z,924.00
2022-11-15T09:41:41.797Z,928.00
2022-11-15T09:42:41.789Z,968.00
2022-11-15T09:43:41.778Z,968.00
2022-11-15T09:44:41.760Z,940.00
2022-11-15T09:45:41.775Z,888.00
2022-11-15T09:46:41.742Z,828.00
2022-11-15T09:47:41.739Z,852.00
2022-11-15T09:48:41.717Z,796.00
2022-11-15T09:49:41.723Z,792.00
2022-11-15T09:50:41.778Z,808.00
2022-11-15T09:51:41.683Z,836.00
2022-11-15T09:52:41.672Z,852.00
2022-11-15T09:54:30.470Z,832.00
2022-11-15T09:54:57.954Z,844.00
2022-11-15T09:55:42.640Z,828.00
2022-11-15T09:56:41.627Z,840.00
2022-11-15T09:57:41.620Z,828.00
2022-11-15T09:58:41.599Z,832.00
2022-11-15T09:59:41.585Z,828.00
2022-11-15T10:00:48.975Z,860.00
2022-11-15T10:01:42.618Z,860.00
2022-11-15T10:02:41.559Z,836.00
2022-11-15T10:03:41.539Z,848.00
2022-11-15T10:04:41.532Z,804.00
2022-11-15T10:05:41.535Z,792.00
2022-11-15T10:06:41.511Z,776.00
2022-11-15T10:07:41.497Z,752.00
2022-11-15T10:08:41.487Z,768.00
2022-11-15T10:09:41.485Z,768.00
2022-11-15T10:10:41.478Z,768.00
2022-11-15T10:11:41.471Z,768.00
2022-11-15T10:12:41.444Z,784.00
2022-11-15T10:13:41.434Z,800.00
2022-11-15T10:14:41.424Z,780.00
2022-11-15T10:15:41.410Z,780.00
2022-11-15T10:16:41.413Z,816.00
2022-11-15T10:17:41.404Z,760.00
2022-11-15T10:18:41.396Z,768.00
2022-11-15T10:19:41.380Z,784.00
2022-11-15T10:20:41.424Z,800.00
2022-11-15T10:21:41.345Z,772.00
2022-11-15T10:22:41.324Z,784.00
2022-11-15T10:23:41.310Z,784.00
2022-11-15T10:24:41.293Z,804.00
2022-11-15T10:25:41.473Z,796.00
2022-11-15T10:26:41.268Z,748.00
2022-11-15T10:27:41.262Z,752.00
2022-11-15T10:28:41.254Z,744.00
2022-11-15T10:29:41.246Z,744.00
2022-11-15T10:30:41.233Z,744.00
2022-11-15T10:31:41.234Z,728.00
2022-11-15T10:32:41.194Z,724.00
2022-11-15T10:33:41.203Z,748.00
2022-11-15T10:34:41.173Z,748.00
2022-11-15T10:35:41.181Z,736.00
2022-11-15T10:36:43.837Z,744.00
2022-11-15T10:37:42.144Z,736.00
2022-11-15T10:38:41.135Z,736.00
2022-11-15T10:39:41.122Z,716.00
2022-11-15T10:40:41.119Z,708.00
2022-11-15T10:41:41.103Z,708.00
2022-11-15T10:42:41.087Z,708.00
2022-11-15T10:43:41.086Z,688.00
2022-11-15T10:44:41.053Z,672.00
2022-11-15T10:45:41.067Z,680.00
2022-11-15T10:46:48.368Z,688.00
2022-11-15T10:47:42.031Z,676.00
2022-11-15T10:48:41.023Z,640.00
2022-11-15T10:49:41.008Z,636.00
2022-11-15T10:50:41.007Z,616.00
2022-11-15T10:51:40.987Z,600.00
2022-11-15T10:52:40.978Z,604.00
2022-11-15T10:53:40.961Z,612.00
2022-11-15T10:54:40.944Z,612.00
2022-11-15T10:55:41.037Z,616.00
2022-11-15T10:56:40.933Z,644.00
2022-11-15T10:57:40.915Z,656.00
2022-11-15T10:58:40.898Z,684.00
2022-11-15T10:59:40.897Z,720.00
2022-11-15T11:00:40.906Z,688.00
2022-11-15T11:01:40.913Z,708.00
2022-11-15T11:02:40.855Z,712.00
2022-11-15T11:03:40.867Z,724.00
2022-11-15T11:04:40.837Z,744.00
2022-11-15T11:05:42.764Z,740.00
2022-11-15T11:06:40.862Z,784.00
2022-11-15T11:07:40.803Z,788.00
2022-11-15T11:08:40.778Z,828.00
2022-11-15T11:09:40.839Z,844.00
2022-11-15T11:11:01.955Z,772.00
2022-11-15T11:11:41.749Z,812.00
2022-11-15T11:12:40.736Z,816.00
2022-11-15T11:13:40.747Z,836.00
2022-11-15T11:14:40.719Z,824.00
2022-11-15T11:15:40.717Z,824.00
2022-11-15T11:16:40.717Z,820.00
2022-11-15T11:17:40.678Z,812.00
2022-11-15T11:18:40.663Z,808.00
2022-11-15T11:19:40.660Z,804.00
2022-11-15T11:20:40.648Z,808.00
2022-11-15T11:21:40.660Z,808.00
2022-11-15T11:22:40.620Z,812.00
2022-11-15T11:23:40.611Z,820.00
2022-11-15T11:24:40.594Z,812.00
2022-11-15T11:25:40.599Z,832.00
2022-11-15T11:26:40.580Z,800.00
2022-11-15T11:27:40.556Z,816.00
2022-11-15T11:28:40.551Z,816.00
2022-11-15T11:29:40.539Z,828.00
2022-11-15T11:30:40.540Z,852.00
2022-11-15T11:31:40.530Z,804.00
2022-11-15T11:32:40.500Z,756.00
2022-11-15T11:33:40.491Z,744.00
2022-11-15T11:34:40.488Z,752.00
2022-11-15T11:35:40.487Z,732.00
2022-11-15T11:36:40.452Z,724.00
2022-11-15T11:37:40.440Z,708.00
2022-11-15T11:38:40.432Z,764.00
2022-11-15T11:39:40.425Z,712.00
2022-11-15T11:40:40.416Z,704.00
2022-11-15T11:41:40.418Z,712.00
2022-11-15T11:42:40.382Z,712.00
2022-11-15T11:43:40.383Z,692.00
2022-11-15T11:44:40.360Z,696.00
2022-11-15T11:45:43.442Z,716.00
2022-11-15T11:46:41.335Z,708.00
2022-11-15T11:47:40.322Z,716.00
2022-11-15T11:48:40.307Z,736.00
2022-11-15T11:49:40.302Z,756.00
2022-11-15T11:50:40.309Z,764.00
2022-11-15T11:51:40.284Z,764.00
2022-11-15T11:52:40.276Z,764.00
2022-11-15T11:53:40.264Z,772.00
2022-11-15T11:54:40.245Z,784.00
2022-11-15T11:55:40.229Z,780.00
2022-11-15T11:56:40.238Z,764.00
2022-11-15T11:57:40.205Z,744.00
2022-11-15T11:58:40.192Z,744.00
2022-11-15T11:59:40.191Z,724.00
2022-11-15T12:00:40.191Z,724.00
2022-11-15T12:01:40.258Z,736.00
2022-11-15T12:02:40.261Z,724.00
2022-11-15T12:03:40.145Z,704.00
2022-11-15T12:04:40.118Z,684.00
2022-11-15T12:05:40.130Z,684.00
2022-11-15T12:06:40.099Z,684.00
2022-11-15T12:07:40.086Z,696.00
2022-11-15T12:08:40.079Z,700.00
2022-11-15T12:09:40.062Z,692.00
2022-11-15T12:10:40.143Z,684.00
2022-11-15T12:11:40.035Z,684.00
2022-11-15T12:12:40.015Z,688.00
2022-11-15T12:13:40.024Z,700.00
2022-11-15T12:14:40.008Z,704.00
2022-11-15T12:15:40.001Z,696.00
2022-11-15T12:16:40.001Z,696.00
2022-11-15T12:17:39.997Z,688.00
2022-11-15T12:18:39.950Z,680.00
2022-11-15T12:19:39.949Z,668.00
2022-11-15T12:20:39.948Z,664.00
2022-11-15T12:21:39.940Z,660.00
2022-11-15T12:22:39.917Z,668.00
2022-11-15T12:23:39.904Z,656.00
2022-11-15T12:24:39.889Z,652.00
2022-11-15T12:25:39.897Z,644.00
2022-11-15T12:26:39.859Z,628.00
2022-11-15T12:27:39.860Z,620.00
2022-11-15T12:28:48.754Z,620.00
2022-11-15T12:29:40.828Z,624.00
2022-11-15T12:30:39.807Z,628.00
2022-11-15T12:31:39.829Z,624.00
2022-11-15T12:32:39.788Z,612.00
2022-11-15T12:33:39.786Z,624.00
2022-11-15T12:34:39.770Z,620.00
2022-11-15T12:35:39.767Z,628.00
2022-11-15T12:36:39.740Z,628.00
2022-11-15T12:37:39.741Z,624.00
2022-11-15T12:38:39.715Z,624.00
2022-11-15T12:39:39.752Z,648.00
2022-11-15T12:40:39.741Z,652.00
2022-11-15T12:41:39.748Z,652.00
2022-11-15T12:42:39.674Z,648.00
2022-11-15T12:43:39.712Z,640.00
2022-11-15T12:44:39.657Z,632.00
2022-11-15T12:45:39.692Z,632.00
2022-11-15T12:46:39.636Z,648.00
2022-11-15T12:47:39.640Z,692.00
2022-11-15T12:48:39.609Z,648.00
2022-11-15T12:49:39.601Z,656.00
2022-11-15T12:50:39.628Z,656.00
2022-11-15T12:51:39.648Z,628.00
2022-11-15T12:52:39.573Z,616.00
2022-11-15T12:53:39.628Z,592.00
2022-11-15T12:54:39.710Z,588.00